createdAt,value
2022-10-26T03:55:52.854Z,94.68
2022-10-26T03:59:16.408Z,94.53
2022-10-26T04:02:39.899Z,94.57
2022-10-26T04:06:03.751Z,94.52
2022-10-26T04:09:27.399Z,94.64
2022-10-26T04:12:50.846Z,94.63
2022-10-26T04:16:14.093Z,94.57
2022-10-26T04:19:37.409Z,94.52
2022-10-26T04:23:02.250Z,94.59
2022-10-26T04:26:25.601Z,94.48
2022-10-26T04:29:48.935Z,94.29
2022-10-26T04:33:12.155Z,94.34
2022-10-26T04:36:35.683Z,94.18
2022-10-26T04:39:59.030Z,94.28
2022-10-26T04:43:22.339Z,94.01
2022-10-26T04:46:46.050Z,94.23
2022-10-26T04:50:11.854Z,94.13
2022-10-26T04:53:35.750Z,94.11
2022-10-26T04:56:59.224Z,94.01
2022-10-26T05:00:22.953Z,94.07
2022-10-26T05:03:50.157Z,94.10
2022-10-26T05:07:13.492Z,94.21
2022-10-26T05:10:36.874Z,94.24
2022-10-26T05:14:00.143Z,94.28
2022-10-26T05:17:23.428Z,94.24
2022-10-26T05:20:49.339Z,94.23
2022-10-26T05:24:12.852Z,94.35
2022-10-26T05:27:36.192Z,94.37
2022-10-26T05:30:59.737Z,94.40
2022-10-26T05:34:23.563Z,94.40
2022-10-26T05:37:47.128Z,94.79
2022-10-26T05:41:10.525Z,94.49
2022-10-26T05:44:33.779Z,94.50
2022-10-26T05:47:59.969Z,94.53
2022-10-26T05:51:25.889Z,94.76
2022-10-26T05:54:49.496Z,94.83
2022-10-26T05:58:14.356Z,94.71
2022-10-26T06:01:51.878Z,94.86
2022-10-26T06:05:22.543Z,94.72
2022-10-26T06:08:46.884Z,94.65
2022-10-26T06:12:14.505Z,94.88
2022-10-26T06:15:54.580Z,94.78
2022-10-26T06:19:33.412Z,94.64
2022-10-26T06:23:10.153Z,94.86
2022-10-26T06:26:42.864Z,94.77
2022-10-26T06:30:09.482Z,94.88
2022-10-26T06:33:33.536Z,94.82
2022-10-26T06:37:00.606Z,94.97
2022-10-26T06:40:25.438Z,95.04
2022-10-26T06:43:50.093Z,95.13
2022-10-26T06:47:21.273Z,95.24
2022-10-26T06:50:51.670Z,95.13
2022-10-26T06:54:23.074Z,95.27
2022-10-26T06:57:47.607Z,95.43
2022-10-26T07:01:12.519Z,95.33
2022-10-26T07:04:36.390Z,95.33
2022-10-26T07:07:59.784Z,95.38
2022-10-26T07:11:23.119Z,95.39
2022-10-26T07:14:46.431Z,95.40
2022-10-26T07:18:10.073Z,95.46
2022-10-26T07:21:33.928Z,95.51
2022-10-26T07:25:00.559Z,95.53
2022-10-26T07:28:26.348Z,95.53
2022-10-26T07:31:50.174Z,95.64
2022-10-26T07:35:13.991Z,95.83
2022-10-26T07:38:37.490Z,95.92
2022-10-26T07:42:01.093Z,96.14
2022-10-26T07:45:24.736Z,95.59
2022-10-26T07:48:47.968Z,95.46
2022-10-26T07:52:11.226Z,95.57
2022-10-26T07:55:34.454Z,95.82
2022-10-26T07:58:57.882Z,95.52
2022-10-26T08:02:21.349Z,95.56
2022-10-26T08:05:46.851Z,95.29
2022-10-26T08:09:10.577Z,95.17
2022-10-26T08:12:33.893Z,95.23
2022-10-26T08:16:01.513Z,95.09
2022-10-26T08:19:24.889Z,95.10
2022-10-26T08:22:48.505Z,95.39
2022-10-26T08:26:12.131Z,95.30
2022-10-26T08:29:35.422Z,95.17
2022-10-26T08:33:00.799Z,95.06
2022-10-26T08:36:25.818Z,94.77
2022-10-26T08:39:51.916Z,94.36
2022-10-26T08:43:23.894Z,94.10
2022-10-26T08:46:53.151Z,93.86
2022-10-26T08:50:24.615Z,93.51
2022-10-26T08:53:54.053Z,92.96
2022-10-26T08:57:25.202Z,93.08
2022-10-26T09:00:51.755Z,92.79
2022-10-26T09:04:15.181Z,92.40
2022-10-26T09:07:49.107Z,92.07
2022-10-26T09:11:25.282Z,92.19
2022-10-26T09:15:00.588Z,91.99
2022-10-26T09:18:34.928Z,91.75
2022-10-26T09:22:03.862Z,91.77
2022-10-26T09:25:35.846Z,91.49
2022-10-26T09:29:03.017Z,91.41
2022-10-26T09:32:34.664Z,91.28
2022-10-26T09:36:01.180Z,91.30
2022-10-26T09:39:40.329Z,90.85
2022-10-26T09:43:10.597Z,90.94
2022-10-26T09:46:42.558Z,90.96
2022-10-26T09:50:20.450Z,90.35
2022-10-26T09:53:43.915Z,90.01
2022-10-26T09:57:09.302Z,89.95
2022-10-26T10:04:19.827Z,90.16
2022-10-26T10:07:43.176Z,90.15
2022-10-26T10:11:10.496Z,90.18
2022-10-26T10:14:40.049Z,89.87
2022-10-26T10:18:03.533Z,89.38
2022-10-26T10:21:36.426Z,89.27
2022-10-26T10:25:01.796Z,89.09
2022-10-26T10:28:27.184Z,88.70
2022-10-26T10:31:56.769Z,88.22
2022-10-26T10:35:23.581Z,88.13
2022-10-26T10:38:49.427Z,87.89
2022-10-26T10:42:18.650Z,87.05
2022-10-26T10:45:47.943Z,86.51
2022-10-26T10:49:21.219Z,85.82
2022-10-26T10:52:45.117Z,85.52
2022-10-26T10:56:28.605Z,85.52
2022-10-26T11:00:02.897Z,85.42
2022-10-26T11:03:49.827Z,84.77
2022-10-26T11:07:18.013Z,84.61
2022-10-26T11:10:45.904Z,84.56
2022-10-26T11:14:14.084Z,84.45
2022-10-26T11:17:45.417Z,84.37
2022-10-26T11:21:19.029Z,83.90
2022-10-26T11:24:47.255Z,82.51
2022-10-26T11:28:18.001Z,82.16
2022-10-26T11:31:49.315Z,82.58
2022-10-26T11:35:18.225Z,81.72
2022-10-26T11:38:56.754Z,81.36
2022-10-26T11:42:26.078Z,81.18
2022-10-26T11:46:02.734Z,80.35
2022-10-26T11:49:32.489Z,79.24
2022-10-26T11:53:00.901Z,79.58
2022-10-26T11:56:31.027Z,79.11
2022-10-26T11:59:59.825Z,79.17
2022-10-26T12:03:27.328Z,79.64
2022-10-26T12:06:54.152Z,79.43
2022-10-26T12:10:26.836Z,79.08
2022-10-26T12:13:54.805Z,79.68
2022-10-26T12:17:26.035Z,79.15
2022-10-26T12:20:55.445Z,79.39
2022-10-26T12:24:29.411Z,78.98
2022-10-26T12:27:59.714Z,78.28
2022-10-26T12:31:43.134Z,78.28
2022-10-26T12:35:31.508Z,78.48
2022-10-26T12:39:00.287Z,78.76
2022-10-26T12:42:30.482Z,78.49
2022-10-26T12:46:40.718Z,77.68
2022-10-26T12:50:24.183Z,76.93
2022-10-26T12:53:52.527Z,76.80
2022-10-26T12:57:23.758Z,76.75
2022-10-26T13:01:11.959Z,76.48
2022-10-26T13:05:07.761Z,76.28
2022-10-26T13:08:41.508Z,76.04
2022-10-26T13:12:06.055Z,75.87
2022-10-26T13:15:33.891Z,75.55
2022-10-26T13:18:59.157Z,75.84
2022-10-26T13:22:23.865Z,75.72
2022-10-26T13:26:02.793Z,75.39
2022-10-26T13:29:31.807Z,75.78
2022-10-26T13:32:57.651Z,75.70
2022-10-26T13:36:30.920Z,74.94
2022-10-26T13:39:56.317Z,75.39
2022-10-26T13:43:23.202Z,75.36
2022-10-26T13:46:51.579Z,74.93
2022-10-26T13:50:19.069Z,74.87
2022-10-26T13:53:49.353Z,74.82
2022-10-26T13:57:18.977Z,75.02
2022-10-26T14:00:59.413Z,75.20
2022-10-26T14:04:27.675Z,74.96
2022-10-26T14:07:56.770Z,74.37
2022-10-26T14:11:25.311Z,74.62
2022-10-26T14:14:50.372Z,74.76
2022-10-26T14:18:19.095Z,74.98
2022-10-26T14:21:49.160Z,74.72
2022-10-26T14:25:26.751Z,74.67
2022-10-26T14:29:01.231Z,74.99
2022-10-26T14:32:28.379Z,75.07
2022-10-26T14:35:53.703Z,75.11
2022-10-26T14:39:23.640Z,75.26
2022-10-26T14:42:49.762Z,75.46
2022-10-26T14:46:16.410Z,75.62
2022-10-26T14:49:46.307Z,75.84
2022-10-26T14:53:15.944Z,75.95
2022-10-26T14:56:41.182Z,76.04
2022-10-26T15:00:15.188Z,76.05
2022-10-26T15:03:38.884Z,76.16
2022-10-26T15:07:09.490Z,76.29
2022-10-26T15:10:51.188Z,76.40
2022-10-26T15:14:17.473Z,76.56
2022-10-26T15:17:43.555Z,76.55
2022-10-26T15:21:23.015Z,76.66
2022-10-26T15:24:52.266Z,76.85
2022-10-26T15:28:22.952Z,77.10
2022-10-26T15:31:46.249Z,77.21
2022-10-26T15:35:24.017Z,77.37
2022-10-26T15:38:48.221Z,77.67
2022-10-26T15:42:14.411Z,77.87
2022-10-26T15:45:47.217Z,78.00
2022-10-26T15:49:18.581Z,78.07
2022-10-26T15:52:44.165Z,78.17
2022-10-26T15:56:14.983Z,78.54
2022-10-26T15:59:38.206Z,78.73
2022-10-26T16:03:03.229Z,78.85
2022-10-26T16:06:29.045Z,79.03
2022-10-26T16:09:53.083Z,79.32
2022-10-26T16:13:16.972Z,79.55
2022-10-26T16:16:40.679Z,79.80
2022-10-26T16:20:08.782Z,79.83
2022-10-26T16:23:33.199Z,80.03
2022-10-26T16:26:56.629Z,80.18
2022-10-26T16:30:20.799Z,80.47
2022-10-26T16:33:44.632Z,80.72
2022-10-26T16:37:08.119Z,80.98
2022-10-26T16:40:31.353Z,81.23
2022-10-26T16:43:56.675Z,81.40
2022-10-26T16:50:44.161Z,81.85
2022-10-26T16:54:07.847Z,82.04
2022-10-26T16:57:31.964Z,82.28
2022-10-26T17:00:55.224Z,82.38
2022-10-26T17:04:19.307Z,82.54
2022-10-26T17:07:42.790Z,82.72
2022-10-26T17:11:08.188Z,82.91
2022-10-26T17:14:32.111Z,83.04
2022-10-26T17:17:55.841Z,83.28
2022-10-26T17:21:27.708Z,83.38
2022-10-26T17:24:51.881Z,83.44
2022-10-26T17:28:16.379Z,83.61
2022-10-26T17:31:40.971Z,83.81
2022-10-26T17:35:07.840Z,83.84
2022-10-26T17:38:33.284Z,84.19
2022-10-26T17:41:57.549Z,84.40
2022-10-26T17:45:22.385Z,84.57
2022-10-26T17:48:47.536Z,84.68
2022-10-26T17:52:12.151Z,84.95
2022-10-26T17:55:36.858Z,84.92
2022-10-26T17:59:02.756Z,85.13
2022-10-26T18:02:28.154Z,85.35
2022-10-26T18:05:53.224Z,85.54
2022-10-26T18:09:18.972Z,85.68
2022-10-26T18:12:44.636Z,85.61
2022-10-26T18:16:13.243Z,85.83
2022-10-26T18:19:37.935Z,85.84
2022-10-26T18:23:03.571Z,85.88
2022-10-26T18:26:30.122Z,86.01
2022-10-26T18:29:54.815Z,86.06
2022-10-26T18:33:20.475Z,86.09
2022-10-26T18:36:45.418Z,86.19
2022-10-26T18:40:13.165Z,86.24
2022-10-26T18:43:43.376Z,86.26
2022-10-26T18:47:08.104Z,86.39
2022-10-26T18:50:32.403Z,86.45
2022-10-26T18:53:58.583Z,86.42
2022-10-26T18:57:26.354Z,86.72
2022-10-26T19:00:51.427Z,86.70
2022-10-26T19:04:15.848Z,86.72
2022-10-26T19:07:40.695Z,86.74
2022-10-26T19:11:06.334Z,86.89
2022-10-26T19:14:30.480Z,86.85
2022-10-26T19:17:56.037Z,86.95
2022-10-26T19:21:21.254Z,87.03
2022-10-26T19:24:46.828Z,87.10
2022-10-26T19:28:10.124Z,87.28
2022-10-26T19:31:35.818Z,87.20
2022-10-26T19:34:59.402Z,87.31
2022-10-26T19:38:23.367Z,87.19
2022-10-26T19:41:46.957Z,87.26
2022-10-26T19:45:12.153Z,87.47
2022-10-26T19:48:36.007Z,87.46
2022-10-26T19:52:00.845Z,87.60
2022-10-26T19:55:24.182Z,87.54
2022-10-26T19:58:49.920Z,87.69
2022-10-26T20:02:13.218Z,87.70
2022-10-26T20:05:41.037Z,87.67
2022-10-26T20:09:04.522Z,87.99
2022-10-26T20:12:28.187Z,88.00
2022-10-26T20:15:52.637Z,87.99
2022-10-26T20:19:15.918Z,88.24
2022-10-26T20:22:39.744Z,88.33
2022-10-26T20:26:03.335Z,88.21
2022-10-26T20:29:26.803Z,88.33
2022-10-26T20:32:50.062Z,88.57
2022-10-26T20:36:13.683Z,88.74
2022-10-26T20:39:38.502Z,88.60
2022-10-26T20:43:02.920Z,88.91
2022-10-26T20:46:28.148Z,88.77
2022-10-26T20:49:52.760Z,88.92
2022-10-26T20:53:24.880Z,88.98
2022-10-26T20:56:49.676Z,89.13
2022-10-26T21:00:15.565Z,89.20
2022-10-26T21:03:39.040Z,89.23
2022-10-26T21:07:02.463Z,89.25
2022-10-26T21:10:25.786Z,89.42
2022-10-26T21:13:49.949Z,89.25
2022-10-26T21:17:13.385Z,89.44
2022-10-26T21:20:36.579Z,89.63
2022-10-26T21:23:59.782Z,89.58
2022-10-26T21:27:23.100Z,89.80
2022-10-26T21:30:46.623Z,89.95
2022-10-26T21:34:10.167Z,89.75
2022-10-26T21:37:33.424Z,89.79
2022-10-26T21:41:04.249Z,89.92
2022-10-26T21:44:42.785Z,89.86
2022-10-26T21:48:06.686Z,89.78
2022-10-26T21:51:30.231Z,89.80
2022-10-26T21:54:53.855Z,90.12
2022-10-26T21:58:17.800Z,89.98
2022-10-26T22:01:41.315Z,90.26
2022-10-26T22:05:06.276Z,90.16
2022-10-26T22:08:29.854Z,90.33
2022-10-26T22:11:53.190Z,90.50
2022-10-26T22:15:17.193Z,90.69
2022-10-26T22:18:43.211Z,90.60
2022-10-26T22:22:06.407Z,90.70
2022-10-26T22:25:29.644Z,90.96
2022-10-26T22:28:55.490Z,90.78
2022-10-26T22:32:18.879Z,90.88
2022-10-26T22:35:42.533Z,90.81
2022-10-26T22:39:06.333Z,91.12
2022-10-26T22:42:29.945Z,90.89
2022-10-26T22:46:00.691Z,90.89
2022-10-26T22:49:24.816Z,90.86
